Lowell, Iowa
Current Conditions -  °F | °C
As of 3:15 AM on Friday 31 Oct 2014 (Local Time) from KMPZ Reporting Station
Overcast Overcast  
Wind Chill: 34°   Ceiling: 4300
Heat Index: 44°   Visibility: 10mi
Dew Point: 30°   Wind: 24mph
Humidity: 58%   Direction: 330°NNW
Pressure: 30.2"   Gusts: 33mph
Location:  40.9215°N, 91.3849°W
Report Text: KMPZ 310815Z AUTO 33021G29KT 10SM OVC043 07/M01 A3020 RMK AO2 T00651013
Loading
Personal Weather Stations






























Interactive Weather Map
Tropical Storm Tracking
New forecast layout! Learn more

10-Day Weather Forecast

Advertisements
Track Severe Weather on mobile